sensor_id;sensor_type;location;lat;lon;timestamp;temperature;humidity
44517;DHT22;30223;17.182;-96.766;2022-10-04T00:01:58;26.40;62.10
44517;DHT22;30223;17.182;-96.766;2022-10-04T00:05:00;26.30;61.50
44517;DHT22;30223;17.182;-96.766;2022-10-04T00:07:20;26.30;62.30
44517;DHT22;30223;17.182;-96.766;2022-10-04T00:09:51;26.30;61.50
44517;DHT22;30223;17.182;-96.766;2022-10-04T00:14:48;26.20;58.00
44517;DHT22;30223;17.182;-96.766;2022-10-04T00:17:19;26.00;53.20
44517;DHT22;30223;17.182;-96.766;2022-10-04T00:19:47;25.90;53.90
44517;DHT22;30223;17.182;-96.766;2022-10-04T00:22:23;25.70;52.00
44517;DHT22;30223;17.182;-96.766;2022-10-04T00:24:59;25.70;52.20
44517;DHT22;30223;17.182;-96.766;2022-10-04T00:27:27;25.60;51.40
44517;DHT22;30223;17.182;-96.766;2022-10-04T00:34:57;25.30;48.90
44517;DHT22;30223;17.182;-96.766;2022-10-04T00:37:24;25.20;50.00
44517;DHT22;30223;17.182;-96.766;2022-10-04T00:40:23;25.20;49.90
44517;DHT22;30223;17.182;-96.766;2022-10-04T00:42:53;25.20;49.80
44517;DHT22;30223;17.182;-96.766;2022-10-04T00:45:33;25.20;50.40
44517;DHT22;30223;17.182;-96.766;2022-10-04T00:50:35;25.10;49.70
44517;DHT22;30223;17.182;-96.766;2022-10-04T00:53:09;25.10;50.10
44517;DHT22;30223;17.182;-96.766;2022-10-04T00:55:38;25.10;50.50
44517;DHT22;30223;17.182;-96.766;2022-10-04T00:58:11;25.00;50.70
44517;DHT22;30223;17.182;-96.766;2022-10-04T01:00:40;25.00;50.90
44517;DHT22;30223;17.182;-96.766;2022-10-04T01:03:09;25.00;51.00
44517;DHT22;30223;17.182;-96.766;2022-10-04T01:05:41;25.00;51.30
44517;DHT22;30223;17.182;-96.766;2022-10-04T01:08:15;24.90;51.50
44517;DHT22;30223;17.182;-96.766;2022-10-04T01:13:16;24.80;51.80
44517;DHT22;30223;17.182;-96.766;2022-10-04T01:20:49;24.70;51.70
44517;DHT22;30223;17.182;-96.766;2022-10-04T01:23:30;24.60;52.00
44517;DHT22;30223;17.182;-96.766;2022-10-04T01:25:56;24.60;52.80
44517;DHT22;30223;17.182;-96.766;2022-10-04T01:28:23;24.60;52.20
44517;DHT22;30223;17.182;-96.766;2022-10-04T01:30:51;24.50;52.40
44517;DHT22;30223;17.182;-96.766;2022-10-04T01:33:17;24.50;52.30
44517;DHT22;30223;17.182;-96.766;2022-10-04T01:35:44;24.50;52.40
44517;DHT22;30223;17.182;-96.766;2022-10-04T01:38:10;24.50;52.40
44517;DHT22;30223;17.182;-96.766;2022-10-04T01:40:42;24.40;53.00
44517;DHT22;30223;17.182;-96.766;2022-10-04T01:43:11;24.30;53.00
44517;DHT22;30223;17.182;-96.766;2022-10-04T01:45:42;24.40;53.20
44517;DHT22;30223;17.182;-96.766;2022-10-04T01:48:13;24.30;53.20
44517;DHT22;30223;17.182;-96.766;2022-10-04T01:50:49;24.30;53.30
44517;DHT22;30223;17.182;-96.766;2022-10-04T01:53:18;24.30;53.30
44517;DHT22;30223;17.182;-96.766;2022-10-04T02:01:19;24.20;53.40
44517;DHT22;30223;17.182;-96.766;2022-10-04T02:03:51;24.20;53.20
44517;DHT22;30223;17.182;-96.766;2022-10-04T02:06:19;24.10;53.20
44517;DHT22;30223;17.182;-96.766;2022-10-04T02:08:47;24.10;53.30
44517;DHT22;30223;17.182;-96.766;2022-10-04T02:11:17;24.10;53.40
44517;DHT22;30223;17.182;-96.766;2022-10-04T02:13:45;24.00;53.50
44517;DHT22;30223;17.182;-96.766;2022-10-04T02:16:12;24.00;53.40
44517;DHT22;30223;17.182;-96.766;2022-10-04T02:18:38;24.00;53.60
44517;DHT22;30223;17.182;-96.766;2022-10-04T02:21:06;24.00;53.70
44517;DHT22;30223;17.182;-96.766;2022-10-04T02:23:33;23.90;53.80
44517;DHT22;30223;17.182;-96.766;2022-10-04T02:26:05;23.90;53.90
44517;DHT22;30223;17.182;-96.766;2022-10-04T02:28:32;23.80;54.00
44517;DHT22;30223;17.182;-96.766;2022-10-04T02:30:58;23.80;53.90
44517;DHT22;30223;17.182;-96.766;2022-10-04T02:33:44;23.70;54.00
44517;DHT22;30223;17.182;-96.766;2022-10-04T02:36:11;23.60;53.90
44517;DHT22;30223;17.182;-96.766;2022-10-04T02:38:40;23.60;54.10
44517;DHT22;30223;17.182;-96.766;2022-10-04T02:48:39;23.50;53.90
44517;DHT22;30223;17.182;-96.766;2022-10-04T02:51:16;23.40;53.90
44517;DHT22;30223;17.182;-96.766;2022-10-04T02:53:54;23.30;53.90
44517;DHT22;30223;17.182;-96.766;2022-10-04T02:56:22;23.30;54.00
44517;DHT22;30223;17.182;-96.766;2022-10-04T02:58:50;23.30;53.90
44517;DHT22;30223;17.182;-96.766;2022-10-04T03:01:23;23.30;53.90
44517;DHT22;30223;17.182;-96.766;2022-10-04T03:03:51;23.30;54.00
44517;DHT22;30223;17.182;-96.766;2022-10-04T03:06:19;23.30;54.00
44517;DHT22;30223;17.182;-96.766;2022-10-04T03:11:11;23.20;54.60
44517;DHT22;30223;17.182;-96.766;2022-10-04T03:13:39;23.20;54.00
44517;DHT22;30223;17.182;-96.766;2022-10-04T03:16:06;23.20;54.20
44517;DHT22;30223;17.182;-96.766;2022-10-04T03:18:33;23.20;53.90
44517;DHT22;30223;17.182;-96.766;2022-10-04T03:21:09;23.10;54.10
44517;DHT22;30223;17.182;-96.766;2022-10-04T03:23:37;23.10;54.10
44517;DHT22;30223;17.182;-96.766;2022-10-04T03:26:17;23.10;54.00
44517;DHT22;30223;17.182;-96.766;2022-10-04T03:28:45;23.10;54.20
44517;DHT22;30223;17.182;-96.766;2022-10-04T03:31:12;23.10;54.30
44517;DHT22;30223;17.182;-96.766;2022-10-04T03:33:39;23.10;54.40
44517;DHT22;30223;17.182;-96.766;2022-10-04T03:36:06;23.00;54.60
44517;DHT22;30223;17.182;-96.766;2022-10-04T03:38:33;23.00;54.60
44517;DHT22;30223;17.182;-96.766;2022-10-04T03:41:00;23.00;54.40
44517;DHT22;30223;17.182;-96.766;2022-10-04T03:43:30;23.00;54.30
44517;DHT22;30223;17.182;-96.766;2022-10-04T03:45:59;23.00;54.40
44517;DHT22;30223;17.182;-96.766;2022-10-04T03:51:12;23.00;54.00
44517;DHT22;30223;17.182;-96.766;2022-10-04T03:53:41;22.90;53.40
44517;DHT22;30223;17.182;-96.766;2022-10-04T03:56:50;22.90;53.10
44517;DHT22;30223;17.182;-96.766;2022-10-04T03:58:58;23.00;53.60
44517;DHT22;30223;17.182;-96.766;2022-10-04T04:01:35;22.90;53.80
44517;DHT22;30223;17.182;-96.766;2022-10-04T04:04:15;22.90;53.70
44517;DHT22;30223;17.182;-96.766;2022-10-04T04:12:01;23.00;54.00
44517;DHT22;30223;17.182;-96.766;2022-10-04T04:14:30;23.00;53.40
44517;DHT22;30223;17.182;-96.766;2022-10-04T04:17:15;23.00;53.80
44517;DHT22;30223;17.182;-96.766;2022-10-04T04:19:41;23.10;54.00
44517;DHT22;30223;17.182;-96.766;2022-10-04T04:22:10;23.10;53.80
44517;DHT22;30223;17.182;-96.766;2022-10-04T04:24:40;23.20;53.80
44517;DHT22;30223;17.182;-96.766;2022-10-04T04:27:07;23.20;53.90
44517;DHT22;30223;17.182;-96.766;2022-10-04T04:29:43;23.20;54.00
44517;DHT22;30223;17.182;-96.766;2022-10-04T04:32:24;23.20;54.00
44517;DHT22;30223;17.182;-96.766;2022-10-04T04:37:19;23.30;54.30
44517;DHT22;30223;17.182;-96.766;2022-10-04T04:39:47;23.30;54.30
44517;DHT22;30223;17.182;-96.766;2022-10-04T04:42:18;23.40;54.30
44517;DHT22;30223;17.182;-96.766;2022-10-04T04:44:47;23.40;54.50
44517;DHT22;30223;17.182;-96.766;2022-10-04T04:49:54;23.40;54.60
44517;DHT22;30223;17.182;-96.766;2022-10-04T04:52:20;23.50;54.80
44517;DHT22;30223;17.182;-96.766;2022-10-04T04:54:47;23.50;54.90
44517;DHT22;30223;17.182;-96.766;2022-10-04T04:57:15;23.50;54.90
44517;DHT22;30223;17.182;-96.766;2022-10-04T04:59:45;23.50;55.00
44517;DHT22;30223;17.182;-96.766;2022-10-04T05:05:13;23.60;55.30
44517;DHT22;30223;17.182;-96.766;2022-10-04T05:07:39;23.60;55.30
44517;DHT22;30223;17.182;-96.766;2022-10-04T05:12:52;23.70;55.60
44517;DHT22;30223;17.182;-96.766;2022-10-04T05:15:19;23.70;55.70
44517;DHT22;30223;17.182;-96.766;2022-10-04T05:17:45;23.70;55.70
44517;DHT22;30223;17.182;-96.766;2022-10-04T05:20:11;23.70;55.80
44517;DHT22;30223;17.182;-96.766;2022-10-04T05:22:39;23.70;55.90
44517;DHT22;30223;17.182;-96.766;2022-10-04T05:25:12;23.70;55.90
44517;DHT22;30223;17.182;-96.766;2022-10-04T05:27:40;23.70;56.00
44517;DHT22;30223;17.182;-96.766;2022-10-04T05:32:58;23.80;56.10
44517;DHT22;30223;17.182;-96.766;2022-10-04T05:35:25;23.80;56.20
44517;DHT22;30223;17.182;-96.766;2022-10-04T05:38:01;23.80;56.30
44517;DHT22;30223;17.182;-96.766;2022-10-04T05:43:23;23.80;56.30
44517;DHT22;30223;17.182;-96.766;2022-10-04T05:48:35;23.80;56.40
44517;DHT22;30223;17.182;-96.766;2022-10-04T05:51:25;23.80;56.40
44517;DHT22;30223;17.182;-96.766;2022-10-04T05:53:50;23.80;56.40
44517;DHT22;30223;17.182;-96.766;2022-10-04T05:56:21;23.80;56.30
44517;DHT22;30223;17.182;-96.766;2022-10-04T05:58:58;23.80;56.30
44517;DHT22;30223;17.182;-96.766;2022-10-04T06:02:11;23.80;56.30
44517;DHT22;30223;17.182;-96.766;2022-10-04T06:04:26;23.80;56.30
44517;DHT22;30223;17.182;-96.766;2022-10-04T06:06:59;23.80;56.30
44517;DHT22;30223;17.182;-96.766;2022-10-04T06:12:26;23.80;56.50
44517;DHT22;30223;17.182;-96.766;2022-10-04T06:20:22;23.80;56.40
44517;DHT22;30223;17.182;-96.766;2022-10-04T06:22:55;23.70;56.30
44517;DHT22;30223;17.182;-96.766;2022-10-04T06:25:30;23.70;56.30
44517;DHT22;30223;17.182;-96.766;2022-10-04T06:33:32;23.70;56.30
44517;DHT22;30223;17.182;-96.766;2022-10-04T06:46:03;23.60;56.20
44517;DHT22;30223;17.182;-96.766;2022-10-04T06:51:09;23.70;56.30
44517;DHT22;30223;17.182;-96.766;2022-10-04T06:56:48;23.60;56.10
44517;DHT22;30223;17.182;-96.766;2022-10-04T07:01:49;23.60;56.10
44517;DHT22;30223;17.182;-96.766;2022-10-04T07:04:20;23.50;56.00
44517;DHT22;30223;17.182;-96.766;2022-10-04T07:06:54;23.50;55.90
44517;DHT22;30223;17.182;-96.766;2022-10-04T07:09:42;23.50;55.90
44517;DHT22;30223;17.182;-96.766;2022-10-04T07:12:09;23.50;55.90
44517;DHT22;30223;17.182;-96.766;2022-10-04T07:14:44;23.50;55.80
44517;DHT22;30223;17.182;-96.766;2022-10-04T07:17:22;23.50;55.70
44517;DHT22;30223;17.182;-96.766;2022-10-04T07:19:49;23.50;55.70
44517;DHT22;30223;17.182;-96.766;2022-10-04T07:22:18;23.50;55.70
44517;DHT22;30223;17.182;-96.766;2022-10-04T07:27:45;23.40;55.50
44517;DHT22;30223;17.182;-96.766;2022-10-04T07:30:15;23.40;55.50
44517;DHT22;30223;17.182;-96.766;2022-10-04T07:32:43;23.40;55.40
44517;DHT22;30223;17.182;-96.766;2022-10-04T07:40:17;23.40;55.20
44517;DHT22;30223;17.182;-96.766;2022-10-04T07:42:47;23.30;55.20
44517;DHT22;30223;17.182;-96.766;2022-10-04T07:47:43;23.30;55.10
44517;DHT22;30223;17.182;-96.766;2022-10-04T07:50:21;23.30;55.00
44517;DHT22;30223;17.182;-96.766;2022-10-04T07:55:27;23.30;55.00
44517;DHT22;30223;17.182;-96.766;2022-10-04T07:57:57;23.30;54.90
44517;DHT22;30223;17.182;-96.766;2022-10-04T08:00:33;23.30;54.90
44517;DHT22;30223;17.182;-96.766;2022-10-04T08:05:33;23.20;54.80
44517;DHT22;30223;17.182;-96.766;2022-10-04T08:10:36;23.20;54.70
44517;DHT22;30223;17.182;-96.766;2022-10-04T08:13:27;23.20;54.70
44517;DHT22;30223;17.182;-96.766;2022-10-04T08:15:51;23.20;54.50
44517;DHT22;30223;17.182;-96.766;2022-10-04T08:20:46;23.20;54.60
44517;DHT22;30223;17.182;-96.766;2022-10-04T08:44:27;23.00;54.10
44517;DHT22;30223;17.182;-96.766;2022-10-04T08:55:13;23.00;54.00
44517;DHT22;30223;17.182;-96.766;2022-10-04T09:06:24;22.90;53.90
44517;DHT22;30223;17.182;-96.766;2022-10-04T09:16:48;22.90;53.80
44517;DHT22;30223;17.182;-96.766;2022-10-04T09:32:32;22.70;53.60
44517;DHT22;30223;17.182;-96.766;2022-10-04T09:35:08;22.70;53.50
44517;DHT22;30223;17.182;-96.766;2022-10-04T09:37:42;22.70;53.50
44517;DHT22;30223;17.182;-96.766;2022-10-04T09:57:06;22.50;53.10
44517;DHT22;30223;17.182;-96.766;2022-10-04T09:59:55;22.50;53.20
44517;DHT22;30223;17.182;-96.766;2022-10-04T10:02:41;22.50;53.30
44517;DHT22;30223;17.182;-96.766;2022-10-04T10:05:21;22.50;53.20
44517;DHT22;30223;17.182;-96.766;2022-10-04T10:07:51;22.50;53.10
44517;DHT22;30223;17.182;-96.766;2022-10-04T10:10:37;22.40;53.70
44517;DHT22;30223;17.182;-96.766;2022-10-04T10:13:29;22.40;53.20
44517;DHT22;30223;17.182;-96.766;2022-10-04T10:18:59;22.40;53.70
44517;DHT22;30223;17.182;-96.766;2022-10-04T10:26:45;22.30;53.00
44517;DHT22;30223;17.182;-96.766;2022-10-04T10:34:57;22.20;52.80
44517;DHT22;30223;17.182;-96.766;2022-10-04T10:37:38;22.30;52.90
44517;DHT22;30223;17.182;-96.766;2022-10-04T10:45:25;22.20;52.80
44517;DHT22;30223;17.182;-96.766;2022-10-04T10:48:04;22.20;52.80
44517;DHT22;30223;17.182;-96.766;2022-10-04T10:50:42;22.20;52.80
44517;DHT22;30223;17.182;-96.766;2022-10-04T11:14:29;22.00;52.70
44517;DHT22;30223;17.182;-96.766;2022-10-04T11:20:04;22.00;52.60
44517;DHT22;30223;17.182;-96.766;2022-10-04T11:36:04;21.90;52.50
44517;DHT22;30223;17.182;-96.766;2022-10-04T11:38:55;21.90;52.60
44517;DHT22;30223;17.182;-96.766;2022-10-04T11:41:41;21.80;52.50
44517;DHT22;30223;17.182;-96.766;2022-10-04T11:44:37;21.80;52.50
44517;DHT22;30223;17.182;-96.766;2022-10-04T11:47:10;21.80;52.60
44517;DHT22;30223;17.182;-96.766;2022-10-04T12:00:09;21.70;52.40
44517;DHT22;30223;17.182;-96.766;2022-10-04T12:02:45;21.70;52.50
44517;DHT22;30223;17.182;-96.766;2022-10-04T12:10:25;21.60;52.30
44517;DHT22;30223;17.182;-96.766;2022-10-04T12:13:14;21.60;52.40
44517;DHT22;30223;17.182;-96.766;2022-10-04T12:15:50;21.60;52.40
44517;DHT22;30223;17.182;-96.766;2022-10-04T12:21:26;21.50;52.40
44517;DHT22;30223;17.182;-96.766;2022-10-04T12:26:59;21.60;52.50
44517;DHT22;30223;17.182;-96.766;2022-10-04T12:45:11;21.40;53.40
44517;DHT22;30223;17.182;-96.766;2022-10-04T12:47:43;21.40;53.70
44517;DHT22;30223;17.182;-96.766;2022-10-04T12:50:15;21.40;53.80
44517;DHT22;30223;17.182;-96.766;2022-10-04T12:53:32;21.40;53.80
44517;DHT22;30223;17.182;-96.766;2022-10-04T12:58:10;21.40;54.00
44517;DHT22;30223;17.182;-96.766;2022-10-04T13:00:40;21.30;54.00
44517;DHT22;30223;17.182;-96.766;2022-10-04T13:24:09;21.10;54.30
44517;DHT22;30223;17.182;-96.766;2022-10-04T13:29:36;21.10;54.40
44517;DHT22;30223;17.182;-96.766;2022-10-04T13:34:39;21.10;54.40
44517;DHT22;30223;17.182;-96.766;2022-10-04T13:42:30;21.10;54.50
44517;DHT22;30223;17.182;-96.766;2022-10-04T13:52:29;21.00;54.50
44517;DHT22;30223;17.182;-96.766;2022-10-04T13:55:30;21.00;54.50
44517;DHT22;30223;17.182;-96.766;2022-10-04T14:06:18;21.20;53.60
44517;DHT22;30223;17.182;-96.766;2022-10-04T14:27:11;21.10;54.90
44517;DHT22;30223;17.182;-96.766;2022-10-04T14:33:06;21.30;55.00
44517;DHT22;30223;17.182;-96.766;2022-10-04T15:01:24;21.10;55.10
44517;DHT22;30223;17.182;-96.766;2022-10-04T15:06:57;21.10;54.10
44517;DHT22;30223;17.182;-96.766;2022-10-04T15:12:01;21.00;54.20
44517;DHT22;30223;17.182;-96.766;2022-10-04T15:14:43;21.10;55.80
44517;DHT22;30223;17.182;-96.766;2022-10-04T15:17:28;21.10;55.80
44517;DHT22;30223;17.182;-96.766;2022-10-04T15:22:26;21.10;55.30
44517;DHT22;30223;17.182;-96.766;2022-10-04T15:24:54;21.20;55.70
44517;DHT22;30223;17.182;-96.766;2022-10-04T15:35:01;21.40;55.70
44517;DHT22;30223;17.182;-96.766;2022-10-04T15:37:37;21.40;55.90
44517;DHT22;30223;17.182;-96.766;2022-10-04T15:40:23;21.50;56.20
44517;DHT22;30223;17.182;-96.766;2022-10-04T15:50:36;21.50;55.70
44517;DHT22;30223;17.182;-96.766;2022-10-04T16:01:21;21.70;55.30
44517;DHT22;30223;17.182;-96.766;2022-10-04T16:06:46;21.80;53.90
44517;DHT22;30223;17.182;-96.766;2022-10-04T16:09:18;21.90;53.30
44517;DHT22;30223;17.182;-96.766;2022-10-04T16:11:55;22.00;54.10
44517;DHT22;30223;17.182;-96.766;2022-10-04T16:24:41;22.20;52.40
44517;DHT22;30223;17.182;-96.766;2022-10-04T16:32:16;22.30;52.30
44517;DHT22;30223;17.182;-96.766;2022-10-04T16:34:51;22.30;50.70
44517;DHT22;30223;17.182;-96.766;2022-10-04T16:37:29;22.30;50.80
44517;DHT22;30223;17.182;-96.766;2022-10-04T16:42:50;22.30;49.90
44517;DHT22;30223;17.182;-96.766;2022-10-04T16:55:56;22.70;51.00
44517;DHT22;30223;17.182;-96.766;2022-10-04T17:03:36;22.70;49.10
44517;DHT22;30223;17.182;-96.766;2022-10-04T17:06:12;22.80;49.60
44517;DHT22;30223;17.182;-96.766;2022-10-04T17:11:27;22.90;48.50
44517;DHT22;30223;17.182;-96.766;2022-10-04T17:13:58;22.90;47.90
44517;DHT22;30223;17.182;-96.766;2022-10-04T17:16:36;23.00;48.90
44517;DHT22;30223;17.182;-96.766;2022-10-04T17:21:52;23.00;47.40
44517;DHT22;30223;17.182;-96.766;2022-10-04T17:34:34;23.10;45.70
44517;DHT22;30223;17.182;-96.766;2022-10-04T17:37:18;23.10;45.30
44517;DHT22;30223;17.182;-96.766;2022-10-04T17:40:32;23.10;44.70
44517;DHT22;30223;17.182;-96.766;2022-10-04T17:48:20;23.20;45.00
44517;DHT22;30223;17.182;-96.766;2022-10-04T17:51:11;23.20;44.70
44517;DHT22;30223;17.182;-96.766;2022-10-04T17:54:02;23.20;44.30
44517;DHT22;30223;17.182;-96.766;2022-10-04T17:59:45;23.40;44.00
44517;DHT22;30223;17.182;-96.766;2022-10-04T18:05:00;23.50;43.40
44517;DHT22;30223;17.182;-96.766;2022-10-04T18:07:36;23.50;43.20
44517;DHT22;30223;17.182;-96.766;2022-10-04T18:12:50;23.70;42.10
44517;DHT22;30223;17.182;-96.766;2022-10-04T18:15:35;23.80;45.70
44517;DHT22;30223;17.182;-96.766;2022-10-04T18:18:25;23.90;44.10
44517;DHT22;30223;17.182;-96.766;2022-10-04T18:23:28;23.80;41.60
44517;DHT22;30223;17.182;-96.766;2022-10-04T18:25:59;23.80;40.30
44517;DHT22;30223;17.182;-96.766;2022-10-04T18:28:27;23.80;40.80
44517;DHT22;30223;17.182;-96.766;2022-10-04T18:31:04;23.80;40.80
44517;DHT22;30223;17.182;-96.766;2022-10-04T18:36:13;23.90;38.20
44517;DHT22;30223;17.182;-96.766;2022-10-04T18:38:40;23.90;37.70
44517;DHT22;30223;17.182;-96.766;2022-10-04T18:51:25;24.10;40.00
44517;DHT22;30223;17.182;-96.766;2022-10-04T18:56:50;24.20;41.50
44517;DHT22;30223;17.182;-96.766;2022-10-04T19:02:47;24.40;42.40
44517;DHT22;30223;17.182;-96.766;2022-10-04T19:07:52;24.60;42.80
44517;DHT22;30223;17.182;-96.766;2022-10-04T19:18:04;24.70;43.20
44517;DHT22;30223;17.182;-96.766;2022-10-04T19:25:32;24.80;43.50
44517;DHT22;30223;17.182;-96.766;2022-10-04T19:35:49;24.90;43.50
44517;DHT22;30223;17.182;-96.766;2022-10-04T19:43:55;25.00;43.50
44517;DHT22;30223;17.182;-96.766;2022-10-04T19:46:32;25.00;43.60
44517;DHT22;30223;17.182;-96.766;2022-10-04T19:49:01;25.10;43.80
44517;DHT22;30223;17.182;-96.766;2022-10-04T19:51:31;25.10;43.70
44517;DHT22;30223;17.182;-96.766;2022-10-04T19:54:02;25.20;43.80
44517;DHT22;30223;17.182;-96.766;2022-10-04T19:56:33;25.20;43.90
44517;DHT22;30223;17.182;-96.766;2022-10-04T19:59:20;25.20;44.00
44517;DHT22;30223;17.182;-96.766;2022-10-04T20:01:49;25.30;44.30
44517;DHT22;30223;17.182;-96.766;2022-10-04T20:04:17;25.30;44.20
44517;DHT22;30223;17.182;-96.766;2022-10-04T20:07:03;25.30;44.40
44517;DHT22;30223;17.182;-96.766;2022-10-04T20:12:26;25.40;44.50
44517;DHT22;30223;17.182;-96.766;2022-10-04T20:15:02;25.40;44.50
44517;DHT22;30223;17.182;-96.766;2022-10-04T20:17:39;25.40;44.70
44517;DHT22;30223;17.182;-96.766;2022-10-04T20:20:06;25.40;44.90
44517;DHT22;30223;17.182;-96.766;2022-10-04T20:22:52;25.50;44.70
44517;DHT22;30223;17.182;-96.766;2022-10-04T20:26:03;25.50;45.00
44517;DHT22;30223;17.182;-96.766;2022-10-04T20:28:04;25.50;45.20
44517;DHT22;30223;17.182;-96.766;2022-10-04T20:30:46;25.60;45.20
44517;DHT22;30223;17.182;-96.766;2022-10-04T20:33:42;25.70;45.20
44517;DHT22;30223;17.182;-96.766;2022-10-04T20:38:58;25.80;45.20
44517;DHT22;30223;17.182;-96.766;2022-10-04T20:46:58;25.80;45.80
44517;DHT22;30223;17.182;-96.766;2022-10-04T20:49:24;25.90;46.00
44517;DHT22;30223;17.182;-96.766;2022-10-04T20:51:51;25.90;46.20
44517;DHT22;30223;17.182;-96.766;2022-10-04T20:54:18;26.00;46.30
44517;DHT22;30223;17.182;-96.766;2022-10-04T20:56:48;26.00;46.40
44517;DHT22;30223;17.182;-96.766;2022-10-04T20:59:15;26.00;46.50
44517;DHT22;30223;17.182;-96.766;2022-10-04T21:01:41;26.10;46.80
44517;DHT22;30223;17.182;-96.766;2022-10-04T21:04:27;26.10;46.80
44517;DHT22;30223;17.182;-96.766;2022-10-04T21:07:00;26.10;47.00
44517;DHT22;30223;17.182;-96.766;2022-10-04T21:09:27;26.20;47.10
44517;DHT22;30223;17.182;-96.766;2022-10-04T21:11:54;26.20;47.10
44517;DHT22;30223;17.182;-96.766;2022-10-04T21:14:24;26.20;47.30
44517;DHT22;30223;17.182;-96.766;2022-10-04T21:16:52;26.20;47.30
44517;DHT22;30223;17.182;-96.766;2022-10-04T21:22:08;26.30;47.70
44517;DHT22;30223;17.182;-96.766;2022-10-04T21:24:41;26.30;47.70
44517;DHT22;30223;17.182;-96.766;2022-10-04T21:27:09;26.40;47.90
44517;DHT22;30223;17.182;-96.766;2022-10-04T21:29:35;26.40;47.90
44517;DHT22;30223;17.182;-96.766;2022-10-04T21:32:02;26.40;48.00
44517;DHT22;30223;17.182;-96.766;2022-10-04T21:34:28;26.40;48.10
44517;DHT22;30223;17.182;-96.766;2022-10-04T21:36:54;26.40;48.20
44517;DHT22;30223;17.182;-96.766;2022-10-04T21:39:20;26.50;48.20
44517;DHT22;30223;17.182;-96.766;2022-10-04T21:41:47;26.50;48.40
44517;DHT22;30223;17.182;-96.766;2022-10-04T21:44:13;26.50;49.00
44517;DHT22;30223;17.182;-96.766;2022-10-04T21:46:39;26.50;48.50
44517;DHT22;30223;17.182;-96.766;2022-10-04T21:49:06;26.50;48.50
44517;DHT22;30223;17.182;-96.766;2022-10-04T21:51:32;26.60;48.60
44517;DHT22;30223;17.182;-96.766;2022-10-04T21:54:02;26.60;48.70
44517;DHT22;30223;17.182;-96.766;2022-10-04T21:56:28;26.60;48.60
44517;DHT22;30223;17.182;-96.766;2022-10-04T21:58:54;26.60;48.70
44517;DHT22;30223;17.182;-96.766;2022-10-04T22:01:20;26.60;48.70
44517;DHT22;30223;17.182;-96.766;2022-10-04T22:03:47;26.60;48.60
44517;DHT22;30223;17.182;-96.766;2022-10-04T22:06:13;26.60;48.90
44517;DHT22;30223;17.182;-96.766;2022-10-04T22:08:39;26.60;48.80
44517;DHT22;30223;17.182;-96.766;2022-10-04T22:11:07;26.70;48.90
44517;DHT22;30223;17.182;-96.766;2022-10-04T22:13:34;26.60;49.60
44517;DHT22;30223;17.182;-96.766;2022-10-04T22:16:00;26.70;49.20
44517;DHT22;30223;17.182;-96.766;2022-10-04T22:18:30;26.70;49.10
44517;DHT22;30223;17.182;-96.766;2022-10-04T22:20:56;26.70;49.10
44517;DHT22;30223;17.182;-96.766;2022-10-04T22:23:23;26.70;49.20
44517;DHT22;30223;17.182;-96.766;2022-10-04T22:25:50;26.70;49.40
44517;DHT22;30223;17.182;-96.766;2022-10-04T22:30:43;26.70;49.50
44517;DHT22;30223;17.182;-96.766;2022-10-04T22:33:31;26.70;49.70
44517;DHT22;30223;17.182;-96.766;2022-10-04T22:38:41;26.80;51.30
44517;DHT22;30223;17.182;-96.766;2022-10-04T22:41:10;26.90;50.90
44517;DHT22;30223;17.182;-96.766;2022-10-04T22:43:37;26.90;51.00
44517;DHT22;30223;17.182;-96.766;2022-10-04T22:46:03;26.90;50.90
44517;DHT22;30223;17.182;-96.766;2022-10-04T22:48:30;27.00;51.10
44517;DHT22;30223;17.182;-96.766;2022-10-04T22:50:56;27.00;51.40
44517;DHT22;30223;17.182;-96.766;2022-10-04T22:53:23;27.00;51.60
44517;DHT22;30223;17.182;-96.766;2022-10-04T22:55:49;27.00;51.10
44517;DHT22;30223;17.182;-96.766;2022-10-04T22:58:16;27.00;50.50
44517;DHT22;30223;17.182;-96.766;2022-10-04T23:00:43;27.00;50.50
44517;DHT22;30223;17.182;-96.766;2022-10-04T23:05:59;26.90;50.10
44517;DHT22;30223;17.182;-96.766;2022-10-04T23:08:26;26.90;50.00
44517;DHT22;30223;17.182;-96.766;2022-10-04T23:10:55;26.90;49.60
44517;DHT22;30223;17.182;-96.766;2022-10-04T23:13:22;26.90;49.60
44517;DHT22;30223;17.182;-96.766;2022-10-04T23:15:49;26.90;49.70
44517;DHT22;30223;17.182;-96.766;2022-10-04T23:18:16;26.80;49.70
44517;DHT22;30223;17.182;-96.766;2022-10-04T23:20:43;26.90;49.50
44517;DHT22;30223;17.182;-96.766;2022-10-04T23:23:11;26.80;49.60
44517;DHT22;30223;17.182;-96.766;2022-10-04T23:25:47;26.80;49.30
44517;DHT22;30223;17.182;-96.766;2022-10-04T23:28:15;26.80;49.40
44517;DHT22;30223;17.182;-96.766;2022-10-04T23:30:42;26.70;49.80
44517;DHT22;30223;17.182;-96.766;2022-10-04T23:33:11;26.80;50.00
44517;DHT22;30223;17.182;-96.766;2022-10-04T23:35:38;26.70;49.10
44517;DHT22;30223;17.182;-96.766;2022-10-04T23:38:04;26.60;49.10
44517;DHT22;30223;17.182;-96.766;2022-10-04T23:40:31;26.60;49.30
44517;DHT22;30223;17.182;-96.766;2022-10-04T23:42:58;26.50;50.10
44517;DHT22;30223;17.182;-96.766;2022-10-04T23:45:25;26.50;49.20
44517;DHT22;30223;17.182;-96.766;2022-10-04T23:47:55;26.50;49.10
44517;DHT22;30223;17.182;-96.766;2022-10-04T23:50:26;26.40;49.40
44517;DHT22;30223;17.182;-96.766;2022-10-04T23:52:54;26.40;48.90
44517;DHT22;30223;17.182;-96.766;2022-10-04T23:55:23;26.40;49.20
44517;DHT22;30223;17.182;-96.766;2022-10-04T23:57:50;26.40;49.40
